Time;durP1;ratioP1;P1;durP2;ratioP2;P2;SDS_P1;SDS_P2;PMS_P1;PMS_P2;Temp;Humidity;BMP_temperature;BMP_pressure;BME280_temperature;BME280_humidity;BME280_pressure;Samples;Min_cycle;Max_cycle;Signal;HPM_P1;HPM_P2
2022/10/22 00:02:04;;;;;;;2.40;1.67;;;;;;;19.71;59.47;98529.91;6916921;28;20788;-77
2022/10/22 00:05:26;;;;;;;1.47;1.37;;;;;;;19.84;59.68;98543.06;6917946;28;20221;-77
2022/10/22 00:08:47;;;;;;;2.00;1.63;;;;;;;19.76;59.64;98532.66;6918279;28;20219;-78
2022/10/22 00:12:11;;;;;;;1.53;1.40;;;;;;;19.72;59.57;98523.34;6917477;28;20241;-77
2022/10/22 00:15:32;;;;;;;2.20;1.60;;;;;;;19.42;59.92;98520.53;6918298;28;20268;-77
2022/10/22 00:18:54;;;;;;;3.33;1.50;;;;;;;19.30;60.46;98509.00;6918087;28;20238;-77
2022/10/22 00:22:15;;;;;;;1.87;1.20;;;;;;;19.42;60.71;98526.00;6918290;28;20228;-77
2022/10/22 00:25:37;;;;;;;2.83;2.00;;;;;;;19.54;60.82;98508.28;6901198;28;20247;-77
2022/10/22 00:28:59;;;;;;;3.70;1.80;;;;;;;19.01;62.11;98524.97;6895526;28;20212;-77
2022/10/22 00:32:21;;;;;;;1.67;1.40;;;;;;;19.00;61.69;98517.88;6896209;28;20537;-77
2022/10/22 00:35:43;;;;;;;4.03;1.40;;;;;;;19.23;60.92;98522.09;6896377;28;20211;-77
2022/10/22 00:39:05;;;;;;;1.83;1.30;;;;;;;19.21;60.54;98536.03;6894410;28;20302;-78
2022/10/22 00:42:28;;;;;;;1.13;1.13;;;;;;;19.27;59.89;98532.22;6895918;28;20303;-77
2022/10/22 00:45:51;;;;;;;1.20;0.93;;;;;;;18.94;61.63;98518.94;6895569;28;20236;-78
2022/10/22 00:49:12;;;;;;;1.03;1.03;;;;;;;19.03;61.06;98519.22;6895484;28;20215;-77
2022/10/22 00:52:34;;;;;;;0.93;0.93;;;;;;;18.61;62.10;98511.09;6895985;28;20250;-77
2022/10/22 00:55:55;;;;;;;2.60;1.20;;;;;;;18.61;62.93;98497.44;6896213;28;20373;-77
2022/10/22 00:59:17;;;;;;;4.20;1.30;;;;;;;18.85;62.06;98487.72;6895492;28;20306;-77
2022/10/22 01:02:40;;;;;;;5.60;1.90;;;;;;;19.24;61.23;98499.13;6895575;28;20213;-77
2022/10/22 01:06:05;;;;;;;2.17;1.10;;;;;;;18.30;62.45;98494.72;6895876;28;20371;-77
2022/10/22 01:09:32;;;;;;;5.00;1.60;;;;;;;19.03;61.95;98494.63;6894927;28;20351;-78
2022/10/22 01:13:02;;;;;;;2.40;1.50;;;;;;;18.84;61.92;98496.19;6895212;28;20335;-77
2022/10/22 01:16:30;;;;;;;1.93;1.40;;;;;;;19.16;61.58;98499.63;6895448;28;20192;-77
2022/10/22 01:20:01;;;;;;;3.43;1.40;;;;;;;18.77;62.93;98512.81;6894628;28;20232;-78
2022/10/22 01:23:36;;;;;;;4.17;1.80;;;;;;;19.00;63.07;98506.13;6895441;28;20215;-78
2022/10/22 01:27:09;;;;;;;4.43;1.70;;;;;;;18.43;65.00;98495.13;6895416;28;20232;-77
2022/10/22 01:30:34;;;;;;;2.60;1.70;;;;;;;18.46;64.72;98491.06;6894202;28;20317;-78
2022/10/22 01:33:55;;;;;;;3.17;1.60;;;;;;;18.81;62.49;98483.88;6894944;28;20562;-78
2022/10/22 01:37:18;;;;;;;3.47;1.83;;;;;;;18.73;62.59;98476.19;6892979;28;20298;-78
2022/10/22 01:40:39;;;;;;;3.57;1.87;;;;;;;18.44;62.66;98444.91;6893894;28;20290;-77
2022/10/22 01:44:01;;;;;;;1.70;1.60;;;;;;;18.75;62.92;98475.94;6894731;28;20270;-77
2022/10/22 01:47:36;;;;;;;2.03;1.83;;;;;;;18.67;62.80;98468.22;6894020;28;20289;-77
2022/10/22 01:51:06;;;;;;;1.83;1.60;;;;;;;18.83;63.05;98487.19;6894551;28;20236;-78
2022/10/22 01:54:33;;;;;;;1.97;1.60;;;;;;;18.31;63.52;98437.19;6894209;28;20348;-78
2022/10/22 01:58:03;;;;;;;1.57;1.47;;;;;;;18.62;63.52;98487.31;6893913;28;20193;-78
2022/10/22 02:01:31;;;;;;;2.37;1.50;;;;;;;17.94;65.80;98484.59;6894411;28;20242;-77
2022/10/22 02:04:58;;;;;;;1.93;1.50;;;;;;;18.47;64.46;98477.16;6894202;28;20223;-77
2022/10/22 02:08:22;;;;;;;1.70;1.60;;;;;;;18.13;64.20;98451.22;6893390;28;20743;-77
2022/10/22 02:11:44;;;;;;;1.67;1.50;;;;;;;18.44;64.36;98495.94;6893589;28;20231;-77
2022/10/22 02:15:07;;;;;;;1.97;1.60;;;;;;;18.51;63.58;98496.56;6893695;28;20260;-78
2022/10/22 02:18:31;;;;;;;1.67;1.57;;;;;;;19.01;62.18;98505.00;6893281;28;20327;-77
2022/10/22 02:21:54;;;;;;;2.17;1.60;;;;;;;18.34;63.82;98488.50;6893628;28;20276;-78
2022/10/22 02:25:15;;;;;;;1.83;1.70;;;;;;;18.75;63.88;98506.78;6899908;28;20260;-77
2022/10/22 02:28:39;;;;;;;2.60;1.80;;;;;;;18.44;64.73;98520.50;6919575;28;20230;-78
2022/10/22 02:32:01;;;;;;;3.70;1.67;;;;;;;18.66;64.07;98538.44;6920443;28;20224;-77
2022/10/22 02:35:25;;;;;;;1.97;1.67;;;;;;;18.49;63.75;98513.19;6919071;28;20618;-77
2022/10/22 02:38:49;;;;;;;1.57;1.37;;;;;;;18.50;64.45;98531.22;6917332;28;20219;-77
2022/10/22 02:42:12;;;;;;;3.23;1.60;;;;;;;19.12;61.92;98531.31;6918245;28;20277;-77
2022/10/22 02:45:34;;;;;;;2.67;1.40;;;;;;;19.16;60.62;98532.44;6918198;28;20660;-77
2022/10/22 02:48:55;;;;;;;2.60;1.60;;;;;;;18.69;61.40;98521.50;6916454;28;20235;-78
2022/10/22 02:52:17;;;;;;;1.67;1.23;;;;;;;18.80;61.38;98538.78;6918113;28;20231;-77
2022/10/22 02:55:40;;;;;;;1.20;1.10;;;;;;;18.86;60.92;98532.28;6917828;28;20213;-77
2022/10/22 02:59:01;;;;;;;1.43;1.00;;;;;;;19.15;60.31;98531.59;6917483;28;20265;-77
2022/10/22 03:02:23;;;;;;;1.30;1.20;;;;;;;19.06;59.41;98516.81;6917809;28;20703;-77
2022/10/22 03:05:44;;;;;;;2.10;1.17;;;;;;;19.20;59.51;98544.47;6918921;28;20659;-77
2022/10/22 03:09:06;;;;;;;2.77;1.50;;;;;;;18.86;60.65;98526.81;6917079;28;20281;-78
2022/10/22 03:12:29;;;;;;;5.87;1.33;;;;;;;18.94;60.83;98539.97;6918066;28;20257;-78
2022/10/22 03:15:50;;;;;;;2.17;1.03;;;;;;;19.10;59.96;98541.69;6918463;28;20273;-77
2022/10/22 03:19:12;;;;;;;1.03;1.00;;;;;;;18.85;60.31;98541.53;6917572;28;20210;-77
2022/10/22 03:22:34;;;;;;;1.80;1.30;;;;;;;18.48;61.72;98524.38;6917910;28;20276;-77
2022/10/22 03:25:56;;;;;;;1.60;1.27;;;;;;;18.53;61.58;98519.78;6918271;28;20691;-77
2022/10/22 03:29:19;;;;;;;1.60;1.27;;;;;;;18.53;61.64;98519.78;6916586;28;20289;-77
2022/10/22 03:32:40;;;;;;;1.50;1.20;;;;;;;18.93;60.45;98511.00;6916758;28;20259;-77
2022/10/22 03:36:02;;;;;;;1.10;1.10;;;;;;;18.65;61.34;98512.22;6916946;28;20685;-78
2022/10/22 03:39:24;;;;;;;3.00;1.60;;;;;;;18.95;60.63;98506.91;6917278;28;20193;-78
2022/10/22 03:42:45;;;;;;;2.60;1.23;;;;;;;19.15;59.73;98501.53;6918655;28;20264;-78
2022/10/22 03:46:08;;;;;;;1.17;1.10;;;;;;;18.29;61.85;98498.53;6917767;28;20260;-77
2022/10/22 03:49:30;;;;;;;1.90;1.53;;;;;;;18.23;63.39;98483.22;6916925;28;20238;-77
2022/10/22 03:52:52;;;;;;;2.20;1.27;;;;;;;18.55;61.80;98505.84;6917799;28;20255;-77
2022/10/22 03:56:13;;;;;;;1.40;1.30;;;;;;;18.42;62.23;98500.84;6917444;28;20222;-78
2022/10/22 03:59:35;;;;;;;1.10;1.10;;;;;;;18.09;62.35;98466.44;6917300;28;20210;-77
2022/10/22 04:02:58;;;;;;;2.67;1.30;;;;;;;18.52;62.42;98522.75;6922683;28;20216;-77
2022/10/22 04:06:20;;;;;;;1.73;1.30;;;;;;;18.46;61.84;98515.63;6923193;28;20621;-77
2022/10/22 04:09:41;;;;;;;1.33;1.03;;;;;;;18.89;61.20;98518.06;6925612;28;20635;-77
2022/10/22 04:13:03;;;;;;;1.43;1.13;;;;;;;18.73;61.36;98517.16;6923004;28;20213;-78
2022/10/22 04:16:29;;;;;;;1.40;1.30;;;;;;;19.05;60.67;98517.06;6922521;28;20279;-78
2022/10/22 04:19:52;;;;;;;2.83;1.37;;;;;;;18.43;62.12;98505.22;6922169;28;20226;-77
2022/10/22 04:23:14;;;;;;;1.83;1.40;;;;;;;18.89;60.63;98490.75;6922417;28;20218;-78
2022/10/22 04:26:35;;;;;;;2.50;1.20;;;;;;;19.04;60.21;98502.56;6909265;28;20292;-78
2022/10/22 04:29:57;;;;;;;1.37;1.10;;;;;;;19.08;59.97;98522.81;6918689;28;20231;-77
2022/10/22 04:33:19;;;;;;;3.37;1.40;;;;;;;18.95;60.63;98534.25;6922435;28;20275;-78
2022/10/22 04:36:41;;;;;;;3.00;1.43;;;;;;;18.04;64.01;98533.81;6920930;28;20201;-77
2022/10/22 04:40:04;;;;;;;1.33;1.23;;;;;;;18.57;61.89;98522.81;6921355;28;20325;-78
2022/10/22 04:43:25;;;;;;;1.30;1.20;;;;;;;18.58;61.42;98535.38;6919605;28;20276;-77
2022/10/22 04:46:46;;;;;;;3.37;1.30;;;;;;;18.82;60.28;98534.69;6908452;28;20261;-78
2022/10/22 04:50:08;;;;;;;1.10;1.00;;;;;;;18.90;60.06;98527.91;6893920;28;20231;-78
2022/10/22 04:53:31;;;;;;;2.57;1.30;;;;;;;17.80;63.04;98540.66;6894645;28;20264;-78
2022/10/22 04:56:53;;;;;;;2.00;1.20;;;;;;;18.32;62.47;98539.81;6894940;28;20812;-78
2022/10/22 05:00:15;;;;;;;1.43;1.03;;;;;;;18.44;61.45;98526.78;6893950;28;20294;-77
2022/10/22 05:03:36;;;;;;;1.53;1.20;;;;;;;18.58;61.25;98530.72;6894841;28;20603;-76
2022/10/22 05:06:58;;;;;;;4.47;2.07;;;;;;;18.84;60.05;98545.34;6897518;28;20292;-77
2022/10/22 05:10:21;;;;;;;1.93;1.70;;;;;;;18.55;60.59;98553.09;6893487;28;20243;-76
2022/10/22 05:13:42;;;;;;;2.50;2.07;;;;;;;18.34;61.41;98556.72;6892867;28;20214;-76
2022/10/22 05:17:04;;;;;;;2.27;1.47;;;;;;;18.49;61.34;98554.13;6893500;28;20207;-77
2022/10/22 05:20:25;;;;;;;1.67;1.30;;;;;;;18.47;60.24;98564.50;6892850;28;20762;-77
2022/10/22 05:23:49;;;;;;;1.30;1.30;;;;;;;18.52;59.85;98569.19;6893740;28;20215;-76
2022/10/22 05:27:11;;;;;;;4.07;1.17;;;;;;;18.61;59.99;98568.44;6894193;28;20235;-77
2022/10/22 05:30:33;;;;;;;2.93;1.00;;;;;;;18.54;59.58;98534.25;6893737;28;20257;-77
2022/10/22 05:33:55;;;;;;;1.80;1.00;;;;;;;18.92;59.07;98567.53;6893705;28;20208;-76
2022/10/22 05:37:16;;;;;;;1.63;1.50;;;;;;;18.72;59.38;98588.44;6891654;28;20211;-77
2022/10/22 05:40:38;;;;;;;1.83;1.73;;;;;;;18.49;60.34;98578.72;6893266;28;20239;-77
2022/10/22 05:44:01;;;;;;;5.67;1.80;;;;;;;17.81;62.34;98575.84;6919575;28;20358;-76
2022/10/22 05:47:23;;;;;;;2.63;1.70;;;;;;;18.06;63.03;98608.03;6921883;28;20284;-77
2022/10/22 05:50:49;;;;;;;1.30;1.30;;;;;;;18.20;62.33;98611.97;6922172;28;20236;-78
2022/10/22 05:54:16;;;;;;;1.30;1.17;;;;;;;17.84;63.25;98639.97;6923462;28;20197;-77
2022/10/22 05:57:39;;;;;;;3.17;1.20;;;;;;;17.70;64.37;98646.91;6921196;28;20297;-76
2022/10/22 06:01:02;;;;;;;3.37;1.80;;;;;;;18.07;63.04;98635.06;6901863;28;20371;-76
2022/10/22 06:04:24;;;;;;;2.07;1.40;;;;;;;18.43;62.05;98653.47;6903849;28;20214;-76
2022/10/22 06:07:46;;;;;;;1.30;1.00;;;;;;;17.51;62.42;98651.03;6894177;28;20373;-79
2022/10/22 06:11:07;;;;;;;1.80;1.60;;;;;;;17.74;63.72;98648.06;6894025;28;20309;-76
2022/10/22 06:14:31;;;;;;;2.40;2.10;;;;;;;18.79;60.54;98649.97;6895453;28;20301;-76
2022/10/22 06:17:54;;;;;;;2.50;1.40;;;;;;;18.29;62.15;98668.56;6899712;28;20224;-77
2022/10/22 06:21:16;;;;;;;5.13;1.40;;;;;;;18.03;62.67;98647.56;6916380;28;20694;-77
2022/10/22 06:24:37;;;;;;;3.37;1.50;;;;;;;18.77;61.53;98684.06;6908486;28;20244;-79
2022/10/22 06:27:59;;;;;;;5.83;1.70;;;;;;;18.09;62.46;98671.09;6897137;28;20299;-77
2022/10/22 06:31:20;;;;;;;4.50;1.60;;;;;;;18.52;62.14;98686.59;6894086;28;20230;-77
2022/10/22 06:34:43;;;;;;;3.37;1.60;;;;;;;18.54;62.09;98679.78;6894145;28;20211;-76
2022/10/22 06:38:05;;;;;;;2.80;1.80;;;;;;;18.84;60.76;98693.72;6891558;28;20275;-77
2022/10/22 06:41:26;;;;;;;1.50;1.40;;;;;;;18.49;61.82;98712.50;6894136;28;20230;-77
2022/10/22 06:44:48;;;;;;;1.77;1.40;;;;;;;18.90;60.09;98716.41;6893827;28;20293;-77
2022/10/22 06:48:09;;;;;;;1.87;1.10;;;;;;;18.02;62.09;98714.13;6893841;28;20269;-78
2022/10/22 06:51:32;;;;;;;1.83;1.30;;;;;;;18.13;61.38;98704.16;6920290;28;20238;-78
2022/10/22 06:54:54;;;;;;;2.57;1.23;;;;;;;18.57;60.17;98692.09;6925210;28;20297;-78
2022/10/22 06:58:15;;;;;;;1.30;1.20;;;;;;;19.04;59.68;98718.47;6913256;28;20674;-77
2022/10/22 07:01:37;;;;;;;4.17;2.00;;;;;;;19.29;59.03;98713.19;6913754;28;20234;-78
2022/10/22 07:04:59;;;;;;;3.33;1.80;;;;;;;18.97;60.51;98726.06;6904649;28;20288;-78
2022/10/22 07:08:22;;;;;;;5.27;2.07;;;;;;;19.24;60.33;98729.59;6892465;28;20241;-77
2022/10/22 07:11:45;;;;;;;5.93;1.83;;;;;;;18.71;61.22;98726.09;6893045;28;20257;-78
2022/10/22 07:15:07;;;;;;;1.87;1.67;;;;;;;19.11;60.21;98731.91;6893659;28;20211;-78
2022/10/22 07:18:29;;;;;;;1.73;1.60;;;;;;;19.37;59.55;98733.75;6892431;28;20291;-77
2022/10/22 07:21:50;;;;;;;5.63;1.80;;;;;;;19.45;59.13;98745.03;6892831;28;20232;-78
2022/10/22 07:25:13;;;;;;;3.07;1.80;;;;;;;19.33;59.60;98751.81;6892804;28;20811;-78
2022/10/22 07:28:36;;;;;;;2.40;2.13;;;;;;;19.32;59.42;98709.13;6892969;28;20293;-79
2022/10/22 07:31:58;;;;;;;2.27;1.83;;;;;;;19.80;58.93;98760.88;6890859;28;20228;-77
2022/10/22 07:35:19;;;;;;;4.00;1.60;;;;;;;19.50;59.18;98734.13;6904971;28;20215;-79
2022/10/22 07:38:41;;;;;;;3.10;2.00;;;;;;;19.55;60.08;98764.25;6916566;28;20212;-79
2022/10/22 07:42:04;;;;;;;3.23;2.37;;;;;;;19.15;61.28;98771.28;6919912;28;20362;-79
2022/10/22 07:45:25;;;;;;;4.50;2.30;;;;;;;18.31;63.86;98774.78;6919081;28;20732;-79
2022/10/22 07:48:47;;;;;;;3.23;2.50;;;;;;;19.12;62.64;98780.00;6921255;28;20298;-79
2022/10/22 07:52:09;;;;;;;3.23;2.70;;;;;;;19.33;61.29;98784.63;6914039;28;20269;-80
2022/10/22 07:55:30;;;;;;;2.40;1.90;;;;;;;19.64;60.46;98772.78;6913096;28;20728;-79
2022/10/22 07:58:53;;;;;;;4.47;2.00;;;;;;;19.86;59.98;98784.44;6918501;28;20260;-78
2022/10/22 08:02:14;;;;;;;5.60;2.50;;;;;;;19.81;60.08;98776.19;6911856;28;20280;-79
2022/10/22 08:05:38;;;;;;;5.73;2.00;;;;;;;20.07;59.06;98786.22;6892170;28;20276;-79
2022/10/22 08:08:59;;;;;;;3.03;1.60;;;;;;;19.98;58.70;98793.25;6921524;28;20595;-79
2022/10/22 08:12:21;;;;;;;4.77;1.87;;;;;;;20.07;59.41;98791.69;6919022;28;20272;-79
2022/10/22 08:15:45;;;;;;;2.67;1.70;;;;;;;19.81;59.21;98789.88;6904124;28;20227;-79
2022/10/22 08:19:07;;;;;;;6.10;2.30;;;;;;;19.84;60.25;98792.06;6909213;28;20218;-79
2022/10/22 08:22:28;;;;;;;5.73;5.13;;;;;;;20.70;59.08;98785.91;6926214;28;20310;-79
2022/10/22 08:25:50;;;;;;;5.83;1.73;;;;;;;21.08;55.95;98795.31;6919301;28;20232;-79
2022/10/22 08:29:11;;;;;;;5.70;1.90;;;;;;;21.08;55.64;98799.97;6918406;28;20231;-79
2022/10/22 08:32:34;;;;;;;3.73;1.60;;;;;;;22.02;53.00;98795.56;6919192;28;20554;-79
2022/10/22 08:35:55;;;;;;;5.20;1.97;;;;;;;22.38;51.55;98794.31;6919081;28;20696;-79
2022/10/22 08:39:17;;;;;;;2.33;1.80;;;;;;;24.64;47.51;98788.59;6900864;28;20291;-79
2022/10/22 08:42:53;;;;;;;3.03;1.37;;;;;;;26.58;40.83;98783.63;6905717;28;20652;-79
2022/10/22 08:46:30;;;;;;;2.90;1.63;;;;;;;26.51;40.26;98778.50;6913408;28;20198;-80
2022/10/22 08:49:53;;;;;;;3.93;2.30;;;;;;;27.55;37.67;98779.97;6899262;28;20363;-78
2022/10/22 08:53:16;;;;;;;4.70;1.87;;;;;;;28.30;36.95;98779.94;6903559;28;20273;-79
2022/10/22 08:56:38;;;;;;;6.33;1.60;;;;;;;26.51;39.79;98786.81;6907103;28;20584;-79
2022/10/22 09:00:04;;;;;;;2.80;1.63;;;;;;;26.47;39.10;98768.34;6895611;28;20224;-78
2022/10/22 09:03:34;;;;;;;3.70;1.30;;;;;;;24.42;43.64;98791.88;6896809;28;20223;-78
2022/10/22 09:06:58;;;;;;;2.73;1.67;;;;;;;24.55;45.63;98790.34;6896359;28;20283;-78
2022/10/22 09:10:22;;;;;;;3.83;1.60;;;;;;;24.11;46.84;98793.34;6899831;28;20297;-78
2022/10/22 09:13:45;;;;;;;2.47;1.40;;;;;;;24.25;45.26;98787.97;6921355;28;20735;-78
2022/10/22 09:17:13;;;;;;;1.50;1.40;;;;;;;23.90;47.04;98788.38;6912571;28;20226;-78
2022/10/22 09:20:39;;;;;;;1.20;1.10;;;;;;;23.60;48.74;98792.19;6895528;28;20240;-78
2022/10/22 09:24:06;;;;;;;1.03;0.90;;;;;;;23.42;48.60;98792.91;6920547;28;20298;-79
2022/10/22 09:27:30;;;;;;;1.30;1.20;;;;;;;24.33;46.28;98773.53;6922769;28;20272;-78
2022/10/22 09:30:52;;;;;;;1.87;1.30;;;;;;;23.57;48.11;98794.69;6921984;28;20289;-78
2022/10/22 09:34:14;;;;;;;1.30;1.20;;;;;;;23.94;46.44;98743.41;6921371;28;20238;-78
2022/10/22 09:37:36;;;;;;;3.13;1.67;;;;;;;24.57;47.55;98807.44;6921996;28;20216;-79
2022/10/22 09:41:02;;;;;;;1.40;1.30;;;;;;;23.99;48.07;98794.88;6912120;28;20360;-79
2022/10/22 09:44:24;;;;;;;3.33;1.60;;;;;;;23.75;48.07;98805.00;6921724;28;20198;-79
2022/10/22 09:47:45;;;;;;;2.00;1.43;;;;;;;24.85;46.29;98807.34;6922002;28;20363;-80
2022/10/22 09:51:13;;;;;;;1.97;1.10;;;;;;;24.90;44.85;98796.22;6921925;28;20222;-79
2022/10/22 09:54:41;;;;;;;1.07;1.00;;;;;;;24.90;46.23;98812.78;6922308;28;20662;-80
2022/10/22 09:58:04;;;;;;;2.67;1.10;;;;;;;24.89;45.35;98819.41;6916428;28;20202;-78
2022/10/22 10:01:28;;;;;;;1.00;0.90;;;;;;;25.23;43.92;98811.75;6922597;28;20328;-78
2022/10/22 10:04:52;;;;;;;2.53;1.20;;;;;;;24.79;45.32;98780.13;6927549;28;20301;-79
2022/10/22 10:08:15;;;;;;;2.03;1.20;;;;;;;24.88;45.35;98825.22;6922497;28;20638;-78
2022/10/22 10:11:42;;;;;;;2.43;1.17;;;;;;;24.05;47.46;98821.25;6919684;28;20319;-79
2022/10/22 10:15:13;;;;;;;1.47;1.10;;;;;;;24.94;45.90;98830.38;6920400;28;20240;-78
2022/10/22 10:18:46;;;;;;;1.73;1.13;;;;;;;24.83;45.41;98828.88;6920320;28;20732;-79
2022/10/22 10:22:14;;;;;;;1.17;1.10;;;;;;;24.65;45.92;98832.41;6920780;28;20230;-78
2022/10/22 10:25:46;;;;;;;1.53;1.10;;;;;;;24.74;45.75;98825.16;6921002;28;20575;-78
2022/10/22 10:29:17;;;;;;;2.97;1.10;;;;;;;25.12;45.34;98823.25;6912499;28;20274;-77
2022/10/22 10:33:03;;;;;;;1.40;0.80;;;;;;;25.55;44.01;98835.84;6893613;28;20209;-78
2022/10/22 10:36:31;;;;;;;3.20;1.30;;;;;;;25.77;43.98;98844.31;6891278;28;20236;-78
2022/10/22 10:40:07;;;;;;;1.00;0.90;;;;;;;26.23;42.11;98834.91;6892861;28;20319;-77
2022/10/22 10:43:33;;;;;;;1.30;1.20;;;;;;;26.00;43.18;98841.44;6908426;28;20608;-78
2022/10/22 10:47:00;;;;;;;2.00;1.00;;;;;;;25.61;43.14;98840.16;6928661;28;20651;-77
2022/10/22 10:50:28;;;;;;;1.30;1.00;;;;;;;25.97;43.02;98849.50;6913330;28;20284;-78
2022/10/22 10:54:03;;;;;;;1.20;1.10;;;;;;;26.07;42.14;98816.97;6898364;28;20246;-78
2022/10/22 10:57:35;;;;;;;0.97;0.97;;;;;;;26.05;42.69;98844.09;6893493;28;20216;-77
2022/10/22 11:00:58;;;;;;;2.60;0.93;;;;;;;26.57;40.04;98849.22;6911413;28;20376;-77
2022/10/22 11:04:34;;;;;;;2.03;1.23;;;;;;;25.69;42.17;98811.84;6919035;28;20215;-77
2022/10/22 11:08:00;;;;;;;2.73;1.23;;;;;;;25.74;42.46;98847.66;6903919;28;20210;-77
2022/10/22 11:11:26;;;;;;;1.93;0.83;;;;;;;25.91;43.05;98825.84;6915404;28;20242;-77
2022/10/22 11:14:55;;;;;;;2.30;1.07;;;;;;;26.04;42.16;98834.19;6899450;28;20293;-77
2022/10/22 11:18:22;;;;;;;1.00;0.90;;;;;;;26.00;42.20;98844.19;6899419;28;20283;-77
2022/10/22 11:21:49;;;;;;;1.67;1.30;;;;;;;26.00;42.41;98841.44;6911252;28;20252;-77
2022/10/22 11:25:18;;;;;;;1.10;1.10;;;;;;;26.54;40.11;98832.41;6895285;28;20338;-78
2022/10/22 11:28:42;;;;;;;2.00;1.00;;;;;;;26.21;40.82;98833.59;6914530;28;20212;-78
2022/10/22 11:32:04;;;;;;;0.87;0.87;;;;;;;25.20;41.75;98845.44;6900032;28;20227;-79
2022/10/22 11:35:27;;;;;;;1.23;1.20;;;;;;;25.56;42.22;98843.84;6919525;28;20300;-79
2022/10/22 11:38:48;;;;;;;4.50;1.73;;;;;;;25.24;43.38;98842.97;6918640;28;20262;-79
2022/10/22 11:42:19;;;;;;;1.40;1.23;;;;;;;25.25;44.26;98842.63;6904601;28;20373;-78
2022/10/22 11:45:42;;;;;;;1.40;1.20;;;;;;;25.45;43.04;98830.47;6910570;28;20233;-78
2022/10/22 11:49:15;;;;;;;2.90;1.10;;;;;;;24.72;43.13;98823.81;6896545;28;20222;-78
2022/10/22 11:52:41;;;;;;;3.03;1.20;;;;;;;25.06;42.47;98827.16;6892289;28;20828;-78
2022/10/22 11:56:21;;;;;;;2.37;1.03;;;;;;;25.51;40.66;98815.47;6903668;28;20200;-77
2022/10/22 11:59:49;;;;;;;1.27;1.10;;;;;;;25.69;40.40;98817.38;6902907;28;20233;-78
2022/10/22 12:03:18;;;;;;;1.47;1.13;;;;;;;25.83;40.83;98821.81;6891479;28;20213;-77
2022/10/22 12:06:53;;;;;;;1.17;1.07;;;;;;;25.96;39.83;98828.53;6891840;28;20271;-78
2022/10/22 12:10:17;;;;;;;2.93;1.30;;;;;;;26.21;39.04;98825.28;6890883;28;20371;-78
2022/10/22 12:13:57;;;;;;;2.70;1.80;;;;;;;27.20;36.62;98814.06;6904559;28;20301;-77
2022/10/22 12:17:21;;;;;;;2.43;1.30;;;;;;;27.27;37.06;98816.41;6912518;28;20195;-78
2022/10/22 12:20:43;;;;;;;1.60;1.13;;;;;;;26.99;37.95;98815.66;6913956;28;20276;-78
2022/10/22 12:24:05;;;;;;;2.93;1.10;;;;;;;26.05;39.77;98810.94;6924107;28;20354;-77
2022/10/22 12:27:33;;;;;;;2.07;1.10;;;;;;;26.15;38.79;98807.16;6915396;28;20711;-78
2022/10/22 12:30:55;;;;;;;2.00;1.17;;;;;;;26.24;38.81;98805.34;6897509;28;20235;-78
2022/10/22 12:34:21;;;;;;;0.97;0.90;;;;;;;26.25;38.91;98813.31;6920192;28;20352;-77
2022/10/22 12:37:42;;;;;;;1.87;1.43;;;;;;;26.40;37.92;98801.97;6923934;28;20196;-78
2022/10/22 12:41:04;;;;;;;2.07;1.47;;;;;;;26.40;38.83;98809.41;6911966;28;20230;-78
2022/10/22 12:44:26;;;;;;;2.60;1.33;;;;;;;26.15;39.41;98802.47;6901745;28;20295;-77
2022/10/22 12:47:48;;;;;;;1.63;1.00;;;;;;;26.30;38.22;98804.13;6895748;28;20210;-78
2022/10/22 12:51:15;;;;;;;1.50;1.33;;;;;;;25.19;39.78;98809.88;6896251;28;20721;-78
2022/10/22 12:54:37;;;;;;;1.00;0.97;;;;;;;25.56;40.55;98799.66;6896687;28;20643;-77
2022/10/22 12:57:59;;;;;;;0.90;0.90;;;;;;;25.54;39.25;98809.34;6895392;28;20214;-78
2022/10/22 13:01:20;;;;;;;1.47;1.10;;;;;;;26.11;39.18;98806.97;6895933;28;20787;-78
2022/10/22 13:04:42;;;;;;;2.10;1.23;;;;;;;26.20;39.01;98799.56;6896988;28;20708;-78
2022/10/22 13:08:09;;;;;;;2.00;1.07;;;;;;;26.38;37.92;98803.38;6897034;28;20276;-78
2022/10/22 13:11:32;;;;;;;2.03;1.37;;;;;;;25.27;39.27;98801.78;6895755;28;20259;-77
2022/10/22 13:14:54;;;;;;;1.50;1.40;;;;;;;25.56;39.60;98798.81;6895855;28;20203;-78
2022/10/22 13:18:18;;;;;;;2.00;1.20;;;;;;;26.95;36.99;98798.03;6894092;28;20298;-77
2022/10/22 13:21:40;;;;;;;1.03;0.90;;;;;;;26.68;35.70;98792.56;6895991;28;20231;-78
2022/10/22 13:25:21;;;;;;;3.90;1.70;;;;;;;26.82;36.49;98798.03;6895485;28;20844;-78
2022/10/22 13:28:42;;;;;;;2.20;0.80;;;;;;;27.19;36.50;98792.25;6894512;28;20196;-78
2022/10/22 13:32:04;;;;;;;2.47;1.20;;;;;;;26.59;36.40;98782.50;6894820;28;20284;-78
2022/10/22 13:35:28;;;;;;;1.50;1.30;;;;;;;25.90;37.86;98788.31;6893585;28;20207;-78
2022/10/22 13:38:49;;;;;;;4.00;1.37;;;;;;;25.55;38.94;98775.09;6894801;28;20267;-78
2022/10/22 13:42:13;;;;;;;3.87;1.37;;;;;;;26.34;38.10;98794.06;6895168;28;20236;-78
2022/10/22 13:45:34;;;;;;;2.53;1.20;;;;;;;26.02;37.77;98780.34;6895082;28;20342;-77
2022/10/22 13:48:57;;;;;;;2.40;1.00;;;;;;;26.56;37.35;98783.13;6903106;28;20231;-80
2022/10/22 13:52:42;;;;;;;2.83;1.30;;;;;;;25.92;37.34;98791.56;6895112;28;20258;-77
2022/10/22 13:56:04;;;;;;;1.93;1.20;;;;;;;26.62;37.42;98781.91;6895013;28;20253;-78
2022/10/22 13:59:27;;;;;;;2.67;1.40;;;;;;;26.43;36.62;98798.56;6894701;28;20266;-78
2022/10/22 14:02:51;;;;;;;1.90;1.17;;;;;;;26.80;36.76;98780.94;6894360;28;20218;-77
2022/10/22 14:06:14;;;;;;;2.23;1.27;;;;;;;26.50;37.38;98789.88;6903148;28;20692;-78
2022/10/22 14:09:35;;;;;;;2.27;1.20;;;;;;;26.61;37.01;98783.84;6916694;28;20223;-78
2022/10/22 14:12:57;;;;;;;4.40;1.20;;;;;;;26.48;37.00;98784.63;6902379;28;20283;-78
2022/10/22 14:16:22;;;;;;;2.53;1.43;;;;;;;26.41;37.74;98786.16;6919521;28;20224;-79
2022/10/22 14:19:45;;;;;;;1.63;1.53;;;;;;;26.43;37.18;98781.97;6900588;28;20642;-78
2022/10/22 14:23:13;;;;;;;1.10;1.00;;;;;;;26.39;37.22;98786.50;6894348;28;20298;-79
2022/10/22 14:26:34;;;;;;;2.27;1.23;;;;;;;25.78;36.85;98752.84;6915307;28;21084;-78
2022/10/22 14:29:56;;;;;;;2.57;1.40;;;;;;;26.30;37.03;98762.66;6911134;28;20240;-78
2022/10/22 14:33:21;;;;;;;2.37;1.20;;;;;;;26.34;37.73;98783.84;6895069;28;20245;-79
2022/10/22 14:36:43;;;;;;;5.00;1.90;;;;;;;26.37;38.44;98790.69;6894601;28;20226;-78
2022/10/22 14:40:09;;;;;;;2.27;1.27;;;;;;;26.32;37.56;98791.59;6892972;28;20233;-78
2022/10/22 14:43:30;;;;;;;3.10;1.87;;;;;;;26.26;37.66;98781.75;6894392;28;20273;-79
2022/10/22 14:46:55;;;;;;;2.57;1.40;;;;;;;26.27;39.17;98783.44;6893256;28;20414;-78
2022/10/22 14:50:18;;;;;;;2.17;0.90;;;;;;;26.22;38.85;98785.47;6893358;28;20624;-79
2022/10/22 14:53:39;;;;;;;2.37;1.13;;;;;;;26.20;37.43;98788.53;6893808;28;20332;-79
2022/10/22 14:57:01;;;;;;;3.77;1.23;;;;;;;26.14;39.54;98777.88;6894574;28;20696;-79
2022/10/22 15:00:23;;;;;;;1.60;1.37;;;;;;;26.01;40.50;98796.09;6892868;28;20237;-79
2022/10/22 15:03:44;;;;;;;5.90;1.70;;;;;;;25.71;41.35;98784.75;6893929;28;20291;-79
2022/10/22 15:07:07;;;;;;;3.50;1.37;;;;;;;25.22;42.29;98801.81;6893927;28;20215;-78
2022/10/22 15:10:28;;;;;;;3.27;1.40;;;;;;;25.03;43.40;98806.53;6893123;28;20585;-78
2022/10/22 15:13:50;;;;;;;4.23;1.90;;;;;;;24.69;43.83;98800.41;6893834;28;20306;-79
2022/10/22 15:17:11;;;;;;;3.47;1.50;;;;;;;24.76;43.20;98803.59;6892165;28;20209;-78
2022/10/22 15:20:33;;;;;;;6.93;1.77;;;;;;;24.12;45.46;98810.72;6907820;28;20327;-77
2022/10/22 15:23:56;;;;;;;5.43;2.00;;;;;;;24.35;44.75;98810.72;6921198;28;20690;-78
2022/10/22 15:27:17;;;;;;;5.63;1.87;;;;;;;24.12;45.62;98807.97;6920910;28;20258;-78
2022/10/22 15:30:39;;;;;;;5.67;2.37;;;;;;;23.91;46.37;98793.59;6920610;28;20315;-78
2022/10/22 15:34:00;;;;;;;7.27;2.53;;;;;;;23.72;46.29;98798.13;6920159;28;20257;-78
2022/10/22 15:37:22;;;;;;;6.97;3.27;;;;;;;23.22;46.12;98731.72;6919340;28;20260;-79
2022/10/22 15:40:45;;;;;;;4.77;3.10;;;;;;;23.48;46.61;98807.47;6892324;28;20281;-80
2022/10/22 15:44:07;;;;;;;8.63;3.50;;;;;;;23.39;47.08;98804.50;6892714;28;20955;-77
2022/10/22 15:47:38;;;;;;;5.00;2.50;;;;;;;23.13;48.06;98807.69;6892234;28;20215;-78
2022/10/22 15:50:59;;;;;;;10.37;3.20;;;;;;;22.81;49.21;98812.81;6892432;28;20379;-79
2022/10/22 15:54:22;;;;;;;9.60;2.90;;;;;;;22.75;49.03;98814.78;6892167;28;20749;-79
2022/10/22 15:57:45;;;;;;;4.70;3.00;;;;;;;22.55;49.46;98812.13;6896645;28;20694;-79
2022/10/22 16:01:08;;;;;;;8.07;4.90;;;;;;;22.43;49.84;98808.88;6898542;28;20791;-78